Etusivu
METAR-TAF:

METAR-TAF

Lentoasemat :

Saint-Nazaire, Ranska

Leveyspiiri: 47-19N, Pituuspiiri: 002-10W, korkeus merenpinnasta: 3 m

Tämänhetkinen sää

Tämä raportti tehtiin 45 minuuttia sitten, kello 04.30 UTC
Tuuli 4 kn pohjoisen/luoteesta, vaihdellen lännen/luoteen ja pohjoisen välillä
Lämpötila 6°C
Kosteus 87%
Ilmanpaine 1030 hPa
Näkyvyys 10 km tai enemmän
ei pilviä alle 1500 m:ssä eikä cumulonimbus-pilviä

METAR: LFRZ 240430Z AUTO 33004KT 300V360 CAVOK 06/04 Q1030 TEMPO 3000 BR

Aika: 06:15 (05:15 UTC)

Sääennuste

Tämä raportti tehtiin 6 tuntia ja 15 minuuttia sitten, kello 23.00 UTC
Ennuste voimassa 24. päivästä klo 00 UTC - 24. päivään klo 24 UTC
Tuuli 8 kn koillisesta
Näkyvyys 10 km tai enemmän
ei pilviä alle 1500 m:ssä eikä cumulonimbus-pilviä
Todennäköisyys 30% :
Ajoittain
24. päivästä klo 03 UTC - 24. päivään klo 08 UTC
Näkyvyys: 3000 m
utua

TAF: LFRZ 232300Z 2400/2424 05008KT CAVOK PROB30 TEMPO 2403/2408 3000 BR

Säähavainnot ja -ennusteet yli 4000 lentoasemalta (METAR- ja TAF-raportit).

Käytössä olevat sääasemat on merkitty karttaan keltaisilla ja punaisilla pisteillä.

Aseta hiiri pisteen päälle nähdäksesi sääaseman nimen.

Klikkaa sitten nähdäksesi säähavainnot ja -ennusteet.

Kartan vaihtaminen: klikkaa mustalla rastilla varustettuja vihreitä pisteitä, niin voit zoomata sisään; viivalla varustettua vihreää pistettä, niin voit zoomata ulos tai vihreitä nuolia, niin pääset viereisille kartoille.


METAR-TAF: